createdAt,value
2022-07-27T00:01:43.919Z,100917.50
2022-07-27T00:04:18.315Z,100918.91
2022-07-27T00:06:44.845Z,100915.13
2022-07-27T00:09:11.890Z,100918.88
2022-07-27T00:11:38.873Z,100927.72
2022-07-27T00:14:05.451Z,100929.91
2022-07-27T00:16:32.375Z,100923.88
2022-07-27T00:18:58.897Z,100926.22
2022-07-27T00:21:26.654Z,100920.28
2022-07-27T00:23:54.377Z,100917.75
2022-07-27T00:26:21.148Z,100920.75
2022-07-27T00:28:47.961Z,100921.03
2022-07-27T00:31:14.670Z,100917.31
2022-07-27T00:33:41.228Z,100920.09
2022-07-27T00:36:08.020Z,100931.09
2022-07-27T00:38:34.507Z,100933.97
2022-07-27T00:41:01.039Z,100935.28
2022-07-27T00:43:27.776Z,100932.47
2022-07-27T00:45:54.253Z,100932.34
2022-07-27T00:48:20.807Z,100935.28
2022-07-27T00:50:48.140Z,100938.22
2022-07-27T00:53:14.827Z,100935.13
2022-07-27T00:55:41.386Z,100942.16
2022-07-27T00:58:09.005Z,100939.41
2022-07-27T01:00:37.179Z,100934.03
2022-07-27T01:03:09.101Z,100930.50
2022-07-27T01:05:43.325Z,100932.88
2022-07-27T01:08:13.737Z,100933.34
2022-07-27T01:10:44.463Z,100933.41
2022-07-27T01:13:13.176Z,100930.97
2022-07-27T01:15:40.811Z,100932.03
2022-07-27T01:18:27.003Z,100944.44
2022-07-27T01:20:54.151Z,100933.53
2022-07-27T01:23:20.629Z,100934.28
2022-07-27T01:25:47.278Z,100934.59
2022-07-27T01:28:13.737Z,100923.06
2022-07-27T01:30:40.402Z,100923.50
2022-07-27T01:33:10.919Z,100931.63
2022-07-27T01:35:39.019Z,100928.16
2022-07-27T01:38:07.522Z,100930.09
2022-07-27T01:40:36.843Z,100928.03
2022-07-27T01:43:05.317Z,100932.31
2022-07-27T01:45:32.101Z,100936.81
2022-07-27T01:47:58.580Z,100937.16
2022-07-27T01:50:25.075Z,100932.06
2022-07-27T01:52:51.518Z,100932.94
2022-07-27T01:55:17.978Z,100931.38
2022-07-27T01:57:44.486Z,100925.88
2022-07-27T02:00:12.132Z,100930.50
2022-07-27T02:02:39.782Z,100935.38
2022-07-27T02:05:07.603Z,100928.81
2022-07-27T02:07:34.134Z,100924.75
2022-07-27T02:10:00.607Z,100930.97
2022-07-27T02:12:36.138Z,100925.44
2022-07-27T02:15:06.976Z,100929.91
2022-07-27T02:17:35.164Z,100926.53
2022-07-27T02:20:02.333Z,100926.06
2022-07-27T02:22:29.080Z,100934.84
2022-07-27T02:24:55.878Z,100930.44
2022-07-27T02:27:22.569Z,100927.00
2022-07-27T02:29:49.102Z,100930.78
2022-07-27T02:32:17.392Z,100932.41
2022-07-27T02:34:44.181Z,100932.72
2022-07-27T02:37:10.806Z,100936.19
2022-07-27T02:39:37.393Z,100930.63
2022-07-27T02:42:04.221Z,100927.75
2022-07-27T02:44:30.739Z,100930.09
2022-07-27T02:46:57.353Z,100932.84
2022-07-27T02:49:24.097Z,100936.06
2022-07-27T02:51:52.106Z,100940.09
2022-07-27T02:54:19.833Z,100929.88
2022-07-27T02:56:46.300Z,100939.03
2022-07-27T02:59:13.078Z,100936.09
2022-07-27T03:01:40.012Z,100932.31
2022-07-27T03:04:06.572Z,100936.59
2022-07-27T03:06:33.095Z,100932.84
2022-07-27T03:09:02.521Z,100936.75
2022-07-27T03:11:28.989Z,100939.69
2022-07-27T03:13:55.826Z,100947.16
2022-07-27T03:16:22.426Z,100937.13
2022-07-27T03:18:49.888Z,100936.91
2022-07-27T03:21:16.731Z,100944.47
2022-07-27T03:23:43.273Z,100937.53
2022-07-27T03:26:09.779Z,100939.03
2022-07-27T03:28:36.323Z,100941.59
2022-07-27T03:31:03.879Z,100944.28
2022-07-27T03:33:30.468Z,100949.34
2022-07-27T03:35:57.503Z,100941.06
2022-07-27T03:38:24.009Z,100950.31
2022-07-27T03:40:50.521Z,100946.06
2022-07-27T03:43:17.015Z,100953.00
2022-07-27T03:45:44.508Z,100953.25
2022-07-27T03:48:11.148Z,100962.78
2022-07-27T03:50:37.891Z,100960.09
2022-07-27T03:53:04.474Z,100954.53
2022-07-27T03:55:30.999Z,100957.22
2022-07-27T03:57:57.486Z,100960.75
2022-07-27T04:00:24.503Z,100961.59
2022-07-27T04:02:51.843Z,100952.69
2022-07-27T04:05:18.490Z,100961.78
2022-07-27T04:07:45.044Z,100964.19
2022-07-27T04:10:11.967Z,100965.91
2022-07-27T04:12:41.496Z,100966.16
2022-07-27T04:15:08.495Z,100969.88
2022-07-27T04:17:54.763Z,100953.88
2022-07-27T04:20:21.756Z,100961.78
2022-07-27T04:22:48.786Z,100964.09
2022-07-27T04:25:15.303Z,100959.81
2022-07-27T04:27:41.848Z,100963.50
2022-07-27T04:30:11.884Z,100957.84
2022-07-27T04:32:38.496Z,100965.44
2022-07-27T04:35:06.470Z,100973.03
2022-07-27T04:37:33.372Z,100964.13
2022-07-27T04:40:00.872Z,100969.50
2022-07-27T04:42:27.557Z,100968.84
2022-07-27T04:44:54.201Z,100959.47
2022-07-27T04:47:20.869Z,100963.03
2022-07-27T04:49:47.436Z,100966.34
2022-07-27T04:52:17.487Z,100962.88
2022-07-27T04:54:45.056Z,100965.44
2022-07-27T04:57:11.636Z,100969.81
2022-07-27T04:59:38.172Z,100964.50
2022-07-27T05:02:04.705Z,100952.72
2022-07-27T05:04:31.292Z,100962.03
2022-07-27T05:06:57.883Z,100963.25
2022-07-27T05:09:24.501Z,100968.75
2022-07-27T05:11:51.870Z,100970.59
2022-07-27T05:14:19.740Z,100968.81
2022-07-27T05:16:47.968Z,100961.78
2022-07-27T05:19:15.051Z,100971.06
2022-07-27T05:21:41.832Z,100978.50
2022-07-27T05:24:08.375Z,100970.81
2022-07-27T05:26:34.845Z,100982.44
2022-07-27T05:29:01.385Z,100983.22
2022-07-27T05:31:27.951Z,100982.63
2022-07-27T05:33:58.215Z,100977.63
2022-07-27T05:36:27.958Z,100980.50
2022-07-27T05:38:57.589Z,100992.03
2022-07-27T05:41:26.193Z,101002.69
2022-07-27T05:43:54.482Z,101002.19
2022-07-27T05:46:21.785Z,101006.31
2022-07-27T05:48:48.544Z,101004.97
2022-07-27T05:51:15.092Z,101008.72
2022-07-27T05:53:41.603Z,101017.19
2022-07-27T05:56:08.141Z,101016.22
2022-07-27T05:58:34.745Z,101030.97
2022-07-27T06:01:01.462Z,101029.63
2022-07-27T06:03:28.102Z,101029.00
2022-07-27T06:06:14.642Z,101039.66
2022-07-27T06:08:41.212Z,101029.00
2022-07-27T06:11:07.731Z,101037.94
2022-07-27T06:13:36.583Z,101032.50
2022-07-27T06:16:04.354Z,101038.78
2022-07-27T06:18:30.980Z,101044.38
2022-07-27T06:20:57.824Z,101035.31
2022-07-27T06:23:24.533Z,101034.28
2022-07-27T06:25:51.024Z,101042.72
2022-07-27T06:28:19.208Z,101041.34
2022-07-27T06:30:46.737Z,101042.75
2022-07-27T06:33:14.257Z,101051.00
2022-07-27T06:35:41.746Z,101045.31
2022-07-27T06:38:08.793Z,101046.84
2022-07-27T06:40:37.644Z,101042.94
2022-07-27T06:43:04.338Z,101031.63
2022-07-27T06:45:30.981Z,101034.75
2022-07-27T06:47:57.539Z,101039.34
2022-07-27T06:50:24.223Z,101037.25
2022-07-27T06:52:51.081Z,101036.72
2022-07-27T06:55:17.858Z,101028.84
2022-07-27T06:57:46.333Z,101040.59
2022-07-27T07:00:13.767Z,101040.13
2022-07-27T07:03:00.725Z,101039.66
2022-07-27T07:05:27.474Z,101044.66
2022-07-27T07:07:54.003Z,101037.41
2022-07-27T07:10:21.013Z,101035.16
2022-07-27T07:12:55.327Z,101036.00
2022-07-27T07:15:23.937Z,101035.53
2022-07-27T07:17:50.532Z,101028.22
2022-07-27T07:20:17.107Z,101034.94
2022-07-27T07:22:43.553Z,101027.06
2022-07-27T07:25:10.038Z,101029.56
2022-07-27T07:27:36.548Z,101031.25
2022-07-27T07:30:06.621Z,101027.88
2022-07-27T07:32:33.671Z,101018.09
2022-07-27T07:35:01.550Z,101027.53
2022-07-27T07:37:33.486Z,101011.09
2022-07-27T07:40:18.850Z,101025.00
2022-07-27T07:42:56.450Z,101019.28
2022-07-27T07:45:24.405Z,101024.63
2022-07-27T07:47:51.832Z,101028.91
2022-07-27T07:50:19.543Z,101024.97
2022-07-27T07:52:51.376Z,101019.19
2022-07-27T07:55:26.353Z,101023.19
2022-07-27T07:57:53.903Z,101017.22
2022-07-27T08:00:21.708Z,101012.41
2022-07-27T08:02:51.713Z,101012.81
2022-07-27T08:05:18.665Z,101018.28
2022-07-27T08:07:45.846Z,101027.09
2022-07-27T08:10:14.990Z,101017.81
2022-07-27T08:12:43.850Z,101023.47
2022-07-27T08:15:11.612Z,101026.06
2022-07-27T08:17:38.168Z,101023.97
2022-07-27T08:20:06.690Z,101020.63
2022-07-27T08:22:33.712Z,101016.41
2022-07-27T08:25:00.194Z,101028.19
2022-07-27T08:27:26.674Z,101035.38
2022-07-27T08:29:53.133Z,101019.25
2022-07-27T08:32:20.452Z,101024.13
2022-07-27T08:34:47.164Z,101034.88
2022-07-27T08:37:15.806Z,101035.91
2022-07-27T08:40:38.340Z,101022.03
2022-07-27T08:42:30.147Z,101009.25
2022-07-27T08:44:58.236Z,101018.63
2022-07-27T08:47:25.439Z,101015.25
2022-07-27T08:49:52.703Z,101016.28
2022-07-27T08:52:20.046Z,101015.28
2022-07-27T08:54:47.204Z,101027.66
2022-07-27T08:57:13.772Z,101026.19
2022-07-27T08:59:40.247Z,101028.56
2022-07-27T09:02:11.080Z,101019.00
2022-07-27T09:04:40.664Z,101019.72
2022-07-27T09:07:07.212Z,101020.56
2022-07-27T09:09:45.828Z,101016.97
2022-07-27T09:12:12.403Z,101015.38
2022-07-27T09:14:41.292Z,101022.31
2022-07-27T09:20:18.548Z,101031.66
2022-07-27T09:22:47.389Z,101032.19
2022-07-27T09:25:16.587Z,101028.63
2022-07-27T09:27:45.676Z,101030.34
2022-07-27T09:30:16.059Z,101030.50
2022-07-27T09:33:14.926Z,101032.28
2022-07-27T09:35:41.518Z,101016.13
2022-07-27T09:38:22.551Z,101010.41
2022-07-27T09:41:00.237Z,101003.41
2022-07-27T09:46:16.249Z,100999.78
2022-07-27T09:48:42.929Z,101006.97
2022-07-27T09:51:55.683Z,100992.56
2022-07-27T09:54:00.444Z,100998.28
2022-07-27T09:56:32.095Z,101004.56
2022-07-27T09:59:00.826Z,101000.00
2022-07-27T10:01:30.750Z,101008.56
2022-07-27T10:04:02.335Z,101011.59
2022-07-27T10:06:35.737Z,101015.41
2022-07-27T10:09:09.313Z,101011.00
2022-07-27T10:11:36.468Z,101009.13
2022-07-27T10:14:03.175Z,101004.56
2022-07-27T10:16:31.649Z,101006.31
2022-07-27T10:19:34.131Z,100997.13
2022-07-27T10:22:00.798Z,100988.75
2022-07-27T10:24:32.151Z,100994.34
2022-07-27T10:26:59.275Z,101002.31
2022-07-27T10:29:26.196Z,100999.59
2022-07-27T10:31:52.580Z,100997.09
2022-07-27T10:34:36.149Z,101002.06
2022-07-27T10:37:13.961Z,100996.78
2022-07-27T10:39:52.148Z,100995.72
2022-07-27T10:42:24.448Z,100997.53
2022-07-27T10:45:03.209Z,100994.50
2022-07-27T10:47:34.155Z,101001.94
2022-07-27T10:50:15.941Z,100989.31
2022-07-27T10:52:44.945Z,100989.25
2022-07-27T10:55:30.215Z,100978.69
2022-07-27T10:58:02.953Z,100977.47
2022-07-27T11:00:55.248Z,100977.41
2022-07-27T11:03:26.629Z,100976.78
2022-07-27T11:07:14.993Z,100981.34
2022-07-27T11:11:56.045Z,100974.91
2022-07-27T11:14:30.351Z,100974.25
2022-07-27T11:17:07.906Z,100988.31
2022-07-27T11:19:59.157Z,100973.50
2022-07-27T11:25:26.704Z,100974.44
2022-07-27T11:27:53.246Z,100968.06
2022-07-27T11:30:27.986Z,100972.41
2022-07-27T11:32:55.904Z,100979.81
2022-07-27T11:35:24.047Z,100968.03
2022-07-27T11:37:59.395Z,100983.56
2022-07-27T11:40:56.481Z,100982.03
2022-07-27T11:43:13.986Z,100977.19
2022-07-27T11:45:42.886Z,100973.63
2022-07-27T11:48:12.504Z,100966.66
2022-07-27T11:50:58.986Z,100964.84
2022-07-27T11:53:27.080Z,100971.38
2022-07-27T11:55:53.621Z,100967.34
2022-07-27T11:58:20.125Z,100969.03
2022-07-27T12:00:46.603Z,100965.41
2022-07-27T12:03:32.226Z,100959.25
2022-07-27T12:06:13.835Z,100959.75
2022-07-27T12:08:41.141Z,100955.66
2022-07-27T12:11:10.640Z,100964.53
2022-07-27T12:13:37.124Z,100963.69
2022-07-27T12:16:03.905Z,100969.50
2022-07-27T12:18:43.686Z,100958.03
2022-07-27T12:21:19.590Z,100947.03
2022-07-27T12:23:51.097Z,100948.38
2022-07-27T12:26:25.270Z,100949.34
2022-07-27T12:29:11.106Z,100958.88
2022-07-27T12:31:47.923Z,100955.56
2022-07-27T12:34:15.224Z,100961.91
2022-07-27T12:36:42.406Z,100960.91
2022-07-27T12:39:24.974Z,100963.44
2022-07-27T12:42:02.741Z,100955.53
2022-07-27T12:44:34.406Z,100966.53
2022-07-27T12:47:02.582Z,100956.53
2022-07-27T12:49:40.803Z,100955.19
2022-07-27T12:52:11.182Z,100949.78
2022-07-27T12:54:38.331Z,100960.41
2022-07-27T12:57:04.875Z,100963.06
2022-07-27T12:59:31.421Z,100946.84
2022-07-27T13:01:58.070Z,100951.13
2022-07-27T13:04:24.670Z,100945.34
2022-07-27T13:06:51.231Z,100943.81
2022-07-27T13:09:17.773Z,100960.22
2022-07-27T13:11:47.891Z,100955.16
2022-07-27T13:14:14.925Z,100948.75
2022-07-27T13:16:41.560Z,100966.34
2022-07-27T13:19:08.243Z,100963.69
2022-07-27T13:21:34.836Z,100968.38
2022-07-27T13:24:02.760Z,100956.00
2022-07-27T13:26:29.231Z,100966.63
2022-07-27T13:28:55.701Z,100962.25
2022-07-27T13:31:22.314Z,100953.28
2022-07-27T13:33:48.808Z,100955.53
2022-07-27T13:36:15.401Z,100960.78
2022-07-27T13:38:41.893Z,100958.69
2022-07-27T13:41:08.601Z,100965.97
2022-07-27T13:43:35.151Z,100951.13
2022-07-27T13:46:03.361Z,100960.59
2022-07-27T13:48:30.032Z,100970.34
2022-07-27T13:50:56.573Z,100976.03
2022-07-27T13:53:23.098Z,100972.44
2022-07-27T13:55:49.656Z,100980.38
2022-07-27T13:58:16.196Z,100973.75
2022-07-27T14:00:42.785Z,100978.47
2022-07-27T14:03:11.254Z,100963.72
2022-07-27T14:05:38.145Z,100963.13
2022-07-27T14:08:08.640Z,100967.31
2022-07-27T14:10:44.525Z,100964.94
2022-07-27T14:13:13.710Z,100965.22
2022-07-27T14:15:54.398Z,100969.00
2022-07-27T14:18:24.391Z,100968.84
2022-07-27T14:20:50.957Z,100970.94
2022-07-27T14:23:17.466Z,100959.22
2022-07-27T14:25:44.059Z,100969.13
2022-07-27T14:28:10.548Z,100963.31
2022-07-27T14:30:37.050Z,100958.53
2022-07-27T14:33:03.703Z,100967.31
2022-07-27T14:35:30.558Z,100954.03
2022-07-27T14:37:58.446Z,100958.19
2022-07-27T14:40:25.686Z,100962.09
2022-07-27T14:42:52.269Z,100960.03
2022-07-27T14:45:19.812Z,100963.63
2022-07-27T14:47:47.475Z,100963.69
2022-07-27T14:50:14.941Z,100961.94
2022-07-27T14:52:41.845Z,100962.84
2022-07-27T14:55:09.490Z,100961.66
2022-07-27T14:57:36.947Z,100957.03
2022-07-27T15:00:10.260Z,100955.13
2022-07-27T15:02:38.091Z,100959.00
2022-07-27T15:05:05.449Z,100956.34
2022-07-27T15:07:32.510Z,100955.88
2022-07-27T15:09:59.105Z,100960.56
2022-07-27T15:12:26.115Z,100962.09
2022-07-27T15:14:52.890Z,100957.47
2022-07-27T15:17:19.696Z,100958.81
2022-07-27T15:19:46.531Z,100945.69
2022-07-27T15:22:13.060Z,100952.25
2022-07-27T15:24:39.546Z,100949.94
2022-07-27T15:27:06.135Z,100950.66
2022-07-27T15:29:32.706Z,100946.72
2022-07-27T15:31:59.346Z,100946.34
2022-07-27T15:34:26.836Z,100956.75
2022-07-27T15:36:53.270Z,100952.03
2022-07-27T15:39:21.531Z,100946.72
2022-07-27T15:41:48.010Z,100951.03
2022-07-27T15:44:18.672Z,100958.72
2022-07-27T15:46:45.153Z,100949.81
2022-07-27T15:49:12.352Z,100946.00
2022-07-27T15:51:39.107Z,100947.88
2022-07-27T15:54:05.612Z,100943.94
2022-07-27T15:56:32.315Z,100940.44
2022-07-27T15:58:58.873Z,100960.38
2022-07-27T16:01:35.179Z,100959.50
2022-07-27T16:04:02.358Z,100955.19
2022-07-27T16:06:29.218Z,100948.38
2022-07-27T16:08:55.738Z,100960.06
2022-07-27T16:11:22.971Z,100946.34
2022-07-27T16:13:49.512Z,100944.84
2022-07-27T16:16:21.970Z,100959.69
2022-07-27T16:18:49.003Z,100948.03
2022-07-27T16:21:15.487Z,100943.16
2022-07-27T16:23:41.976Z,100953.22
2022-07-27T16:26:08.750Z,100955.19
2022-07-27T16:28:39.226Z,100955.28
2022-07-27T16:31:08.103Z,100958.56
2022-07-27T16:33:34.859Z,100953.13
2022-07-27T16:36:01.540Z,100941.50
2022-07-27T16:38:28.495Z,100950.31
2022-07-27T16:40:55.009Z,100945.06
2022-07-27T16:43:21.568Z,100942.09
2022-07-27T16:45:48.152Z,100953.50
2022-07-27T16:48:14.879Z,100944.72
2022-07-27T16:50:41.363Z,100951.75
2022-07-27T16:53:08.002Z,100954.97
2022-07-27T16:55:34.470Z,100951.06
2022-07-27T16:58:00.960Z,100959.38
2022-07-27T17:00:27.442Z,100958.44
2022-07-27T17:02:54.013Z,100953.69
2022-07-27T17:05:20.840Z,100960.09
2022-07-27T17:07:50.241Z,100961.66
2022-07-27T17:10:27.211Z,100957.41
2022-07-27T17:12:54.564Z,100956.03
2022-07-27T17:15:22.387Z,100958.06
2022-07-27T17:17:48.847Z,100954.88
2022-07-27T17:20:15.350Z,100949.34
2022-07-27T17:22:54.286Z,100947.56
2022-07-27T17:25:21.698Z,100948.38
2022-07-27T17:27:48.630Z,100961.97
2022-07-27T17:30:16.134Z,100955.81
2022-07-27T17:32:42.888Z,100963.00
2022-07-27T17:35:09.671Z,100953.44
2022-07-27T17:38:03.472Z,100959.66
2022-07-27T17:40:22.696Z,100937.88
2022-07-27T17:42:52.117Z,100951.94
2022-07-27T17:45:18.820Z,100948.31
2022-07-27T17:47:45.359Z,100951.94
2022-07-27T17:50:12.152Z,100964.59
2022-07-27T17:52:38.777Z,100949.19
2022-07-27T17:55:05.958Z,100949.75
2022-07-27T17:57:32.527Z,100947.38
2022-07-27T17:59:59.056Z,100950.06
2022-07-27T18:02:25.762Z,100952.13
2022-07-27T18:04:52.417Z,100947.91
2022-07-27T18:07:19.315Z,100952.50
2022-07-27T18:09:45.838Z,100962.97
2022-07-27T18:12:12.349Z,100951.66
2022-07-27T18:14:58.762Z,100953.78
2022-07-27T18:17:25.317Z,100959.13
2022-07-27T18:19:51.776Z,100960.66
2022-07-27T18:22:18.292Z,100952.56
2022-07-27T18:24:44.792Z,100956.91
2022-07-27T18:27:11.335Z,100953.13
2022-07-27T18:29:37.902Z,100952.75
2022-07-27T18:32:05.451Z,100950.06
2022-07-27T18:34:32.569Z,100947.22
2022-07-27T18:36:59.116Z,100955.31
2022-07-27T18:39:33.687Z,100953.94
2022-07-27T18:42:03.687Z,100956.31
2022-07-27T18:44:36.709Z,100958.19
2022-07-27T18:47:05.358Z,100958.22
2022-07-27T18:49:31.998Z,100953.59
2022-07-27T18:51:58.632Z,100959.94
2022-07-27T18:54:25.108Z,100962.72
2022-07-27T18:56:52.295Z,100963.97
2022-07-27T18:59:18.987Z,100970.31
2022-07-27T19:01:45.530Z,100968.66
2022-07-27T19:04:12.766Z,100974.25
2022-07-27T19:06:42.576Z,100974.13
2022-07-27T19:09:11.204Z,100977.41
2022-07-27T19:11:37.877Z,100980.13
2022-07-27T19:14:04.445Z,100978.28
2022-07-27T19:16:31.035Z,100986.91
2022-07-27T19:18:57.623Z,100986.53
2022-07-27T19:21:24.258Z,100989.44
2022-07-27T19:23:50.775Z,100987.88
2022-07-27T19:26:17.628Z,100999.63
2022-07-27T19:28:44.324Z,101002.91
2022-07-27T19:31:22.713Z,101003.03
2022-07-27T19:33:51.011Z,101011.13
2022-07-27T19:36:18.049Z,101010.94
2022-07-27T19:38:44.643Z,101015.06
2022-07-27T19:41:11.142Z,101024.09
2022-07-27T19:43:37.700Z,101018.94
2022-07-27T19:46:04.271Z,101020.41
2022-07-27T19:48:30.842Z,101020.00
2022-07-27T19:51:00.924Z,101024.00
2022-07-27T19:53:31.350Z,101032.63
2022-07-27T19:55:59.878Z,101028.91
2022-07-27T19:58:26.506Z,101030.06
2022-07-27T20:00:53.238Z,101031.06
2022-07-27T20:03:20.511Z,101032.41
2022-07-27T20:05:47.843Z,101039.34
2022-07-27T20:08:15.238Z,101038.34
2022-07-27T20:10:42.566Z,101046.94
2022-07-27T20:13:10.025Z,101041.31
2022-07-27T20:15:36.905Z,101041.53
2022-07-27T20:18:04.012Z,101040.91
2022-07-27T20:20:30.801Z,101043.56
2022-07-27T20:22:57.451Z,101047.97
2022-07-27T20:25:24.478Z,101042.81
2022-07-27T20:27:52.032Z,101049.00
2022-07-27T20:30:19.868Z,101049.63
2022-07-27T20:32:48.466Z,101048.72
2022-07-27T20:35:15.388Z,101050.19
2022-07-27T20:37:43.003Z,101057.13
2022-07-27T20:40:11.676Z,101058.56
2022-07-27T20:42:42.747Z,101066.78
2022-07-27T20:45:12.704Z,101062.84
2022-07-27T20:47:39.278Z,101065.25
2022-07-27T20:50:10.884Z,101064.53
2022-07-27T20:52:41.209Z,101078.84
2022-07-27T20:55:08.756Z,101076.84
2022-07-27T20:57:36.142Z,101086.31
2022-07-27T21:00:03.337Z,101080.66
2022-07-27T21:02:29.873Z,101083.91
2022-07-27T21:04:57.174Z,101088.59
2022-07-27T21:07:23.714Z,101083.81
2022-07-27T21:09:50.200Z,101087.75
2022-07-27T21:12:16.758Z,101099.88
2022-07-27T21:14:43.606Z,101106.97
2022-07-27T21:17:10.430Z,101093.72
2022-07-27T21:19:37.144Z,101100.91
2022-07-27T21:22:04.083Z,101108.47
2022-07-27T21:24:30.577Z,101115.00
2022-07-27T21:27:00.971Z,101113.50
2022-07-27T21:29:31.843Z,101116.38
2022-07-27T21:31:58.704Z,101116.47
2022-07-27T21:34:25.210Z,101122.47
2022-07-27T21:36:51.756Z,101120.06
2022-07-27T21:39:20.022Z,101119.72
2022-07-27T21:41:46.889Z,101119.97
2022-07-27T21:44:14.307Z,101114.50
2022-07-27T21:46:41.247Z,101121.53
2022-07-27T21:49:13.152Z,101117.72
2022-07-27T21:51:40.213Z,101120.09
2022-07-27T21:54:06.860Z,101125.53
2022-07-27T21:56:40.793Z,101132.69
2022-07-27T21:59:08.467Z,101134.28
2022-07-27T22:01:35.030Z,101131.75
2022-07-27T22:04:01.981Z,101133.38
2022-07-27T22:06:28.539Z,101127.03
2022-07-27T22:08:55.020Z,101129.38
2022-07-27T22:11:21.539Z,101121.63
2022-07-27T22:13:48.004Z,101139.09
2022-07-27T22:16:14.580Z,101129.69
2022-07-27T22:18:41.107Z,101123.88
2022-07-27T22:21:08.688Z,101130.16
2022-07-27T22:23:35.234Z,101133.25
2022-07-27T22:26:01.715Z,101127.94
2022-07-27T22:28:28.180Z,101144.78
2022-07-27T22:31:20.418Z,101137.09
2022-07-27T22:33:44.530Z,101143.59
2022-07-27T22:36:11.960Z,101139.59
2022-07-27T22:38:39.122Z,101141.25
2022-07-27T22:41:05.657Z,101149.94
2022-07-27T22:43:32.156Z,101146.78
2022-07-27T22:45:58.966Z,101140.56
2022-07-27T22:48:25.587Z,101145.00
2022-07-27T22:50:52.080Z,101155.63
2022-07-27T22:53:18.633Z,101148.03
2022-07-27T22:55:45.152Z,101153.19
2022-07-27T22:58:11.807Z,101164.09
2022-07-27T23:00:41.639Z,101153.34
2022-07-27T23:03:08.154Z,101151.59
2022-07-27T23:05:34.757Z,101162.44
2022-07-27T23:08:01.348Z,101155.91
2022-07-27T23:10:45.719Z,101160.78
2022-07-27T23:13:17.315Z,101155.56
2022-07-27T23:15:44.781Z,101157.59
2022-07-27T23:18:12.195Z,101156.53
2022-07-27T23:20:39.512Z,101161.66
2022-07-27T23:23:15.774Z,101161.81
2022-07-27T23:25:45.242Z,101156.69
2022-07-27T23:28:11.999Z,101161.88
2022-07-27T23:30:38.519Z,101157.88
2022-07-27T23:33:05.159Z,101172.22
2022-07-27T23:35:32.138Z,101169.47
2022-07-27T23:38:00.098Z,101161.63
2022-07-27T23:40:26.686Z,101166.03
2022-07-27T23:42:53.491Z,101161.88
2022-07-27T23:45:20.131Z,101167.25
2022-07-27T23:47:46.601Z,101167.38
2022-07-27T23:50:14.064Z,101161.16
2022-07-27T23:52:40.614Z,101171.22
2022-07-27T23:55:07.959Z,101176.69
2022-07-27T23:57:34.537Z,101172.53
